Time;durP1;ratioP1;P1;durP2;ratioP2;P2;SDS_P1;SDS_P2;PMS_P1;PMS_P2;Temp;Humidity;BMP_temperature;BMP_pressure;BME280_temperature;BME280_humidity;BME280_pressure;Samples;Min_cycle;Max_cycle;Signal;HPM_P1;HPM_P2
2023/09/08 00:01:01;;;;;;;21.52;20.77;;;21.70;99.90;;;;;;5050708;28;20298;-62
2023/09/08 00:03:28;;;;;;;21.67;20.92;;;21.60;99.90;;;;;;5054381;28;20255;-62
2023/09/08 00:05:55;;;;;;;21.55;20.80;;;21.60;99.90;;;;;;5045334;28;20200;-63
2023/09/08 00:08:23;;;;;;;22.33;21.52;;;21.50;99.90;;;;;;5052862;28;20214;-62
2023/09/08 00:10:50;;;;;;;21.13;20.33;;;21.40;99.90;;;;;;5044476;28;20291;-63
2023/09/08 00:13:18;;;;;;;19.60;18.90;;;21.40;99.90;;;;;;5044783;28;20223;-64
2023/09/08 00:15:45;;;;;;;19.00;18.35;;;21.40;99.90;;;;;;5053898;28;20307;-63
2023/09/08 00:18:12;;;;;;;19.80;19.10;;;21.30;99.90;;;;;;5051513;28;20207;-63
2023/09/08 00:20:39;;;;;;;19.58;18.88;;;21.20;99.90;;;;;;5043344;28;20211;-63
2023/09/08 00:23:06;;;;;;;19.25;18.55;;;21.20;99.90;;;;;;5050966;28;20231;-63
2023/09/08 00:25:34;;;;;;;19.67;18.98;;;21.20;99.90;;;;;;5051311;28;20207;-63
2023/09/08 00:28:01;;;;;;;18.27;17.67;;;21.20;99.90;;;;;;5051162;28;20674;-63
2023/09/08 00:30:29;;;;;;;17.67;17.08;;;21.10;99.90;;;;;;5050137;28;20212;-64
2023/09/08 00:32:56;;;;;;;18.63;18.02;;;21.10;99.90;;;;;;5045558;28;20220;-63
2023/09/08 00:35:23;;;;;;;18.10;17.50;;;21.00;99.90;;;;;;5049927;28;20227;-63
2023/09/08 00:37:49;;;;;;;18.48;17.83;;;21.00;99.90;;;;;;5050104;28;20214;-62
2023/09/08 00:40:16;;;;;;;21.10;20.40;;;20.90;99.90;;;;;;5048454;28;20674;-64
2023/09/08 00:42:43;;;;;;;18.40;17.70;;;20.90;99.90;;;;;;5050496;28;20310;-63
2023/09/08 00:45:11;;;;;;;18.83;18.13;;;21.00;99.90;;;;;;5054471;28;20682;-62
2023/09/08 00:47:39;;;;;;;18.42;17.73;;;21.00;99.90;;;;;;5053292;28;20200;-64
2023/09/08 00:50:07;;;;;;;17.55;16.85;;;21.00;99.90;;;;;;5052511;28;20234;-63
2023/09/08 00:52:34;;;;;;;17.42;16.83;;;20.90;99.90;;;;;;5041421;28;20246;-63
2023/09/08 00:55:01;;;;;;;18.70;18.10;;;20.90;99.90;;;;;;5051794;28;20208;-63
2023/09/08 00:57:28;;;;;;;18.73;18.00;;;20.90;99.90;;;;;;5051490;28;20210;-63
2023/09/08 00:59:55;;;;;;;19.25;18.55;;;20.90;99.90;;;;;;5051288;28;20585;-64
2023/09/08 01:02:22;;;;;;;18.10;17.50;;;21.00;99.90;;;;;;5050461;28;20224;-64
2023/09/08 01:04:51;;;;;;;18.73;18.02;;;20.90;99.90;;;;;;5034240;28;20238;-64
2023/09/08 01:07:20;;;;;;;18.27;17.63;;;20.90;99.90;;;;;;5043510;28;20207;-63
2023/09/08 01:09:48;;;;;;;18.40;17.75;;;20.90;99.90;;;;;;5051542;28;20208;-62
2023/09/08 01:12:16;;;;;;;17.95;17.35;;;20.90;99.90;;;;;;5050576;28;20224;-62
2023/09/08 01:14:42;;;;;;;18.65;18.00;;;20.90;99.90;;;;;;5050705;28;20204;-64
2023/09/08 01:17:09;;;;;;;19.85;19.17;;;20.80;99.90;;;;;;5042692;28;20227;-62
2023/09/08 01:19:37;;;;;;;17.77;17.17;;;20.80;99.90;;;;;;5050836;28;20204;-63
2023/09/08 01:22:30;;;;;;;20.60;19.88;;;20.80;99.90;;;;;;5043122;28;20328;-64
2023/09/08 01:25:11;;;;;;;18.73;18.10;;;20.80;99.90;;;;;;5039034;28;20207;-63
2023/09/08 01:27:38;;;;;;;21.83;21.08;;;20.70;99.90;;;;;;5048248;28;20210;-62
2023/09/08 01:30:08;;;;;;;27.98;26.90;;;20.70;99.90;;;;;;5043023;28;20303;-62
2023/09/08 01:32:35;;;;;;;20.38;19.67;;;20.60;99.90;;;;;;5052822;28;20224;-62
2023/09/08 01:35:03;;;;;;;21.33;20.58;;;20.50;99.90;;;;;;5049635;28;20212;-62
2023/09/08 01:37:30;;;;;;;17.98;17.38;;;20.50;99.90;;;;;;5053960;28;20322;-62
2023/09/08 01:39:56;;;;;;;19.50;18.80;;;20.40;99.90;;;;;;5054012;28;20567;-64
2023/09/08 01:42:25;;;;;;;19.93;19.20;;;20.40;99.90;;;;;;5053813;28;20341;-62
2023/09/08 01:44:51;;;;;;;18.88;18.20;;;20.50;99.90;;;;;;5037517;28;20607;-63
2023/09/08 01:47:18;;;;;;;20.23;19.52;;;20.50;99.90;;;;;;5054120;28;20208;-62
2023/09/08 01:49:45;;;;;;;17.30;16.70;;;20.50;99.90;;;;;;5053636;28;20728;-62
2023/09/08 01:52:12;;;;;;;25.92;25.02;;;20.50;99.90;;;;;;5047266;28;20239;-62
2023/09/08 01:54:39;;;;;;;18.95;18.25;;;20.50;99.90;;;;;;5052215;28;20204;-62
2023/09/08 01:57:05;;;;;;;19.60;18.90;;;20.50;99.90;;;;;;5054071;28;20234;-61
2023/09/08 01:59:34;;;;;;;15.95;15.35;;;20.50;99.90;;;;;;5053688;28;20234;-63
2023/09/08 02:02:00;;;;;;;17.83;17.20;;;20.50;99.90;;;;;;5053389;28;20224;-62
2023/09/08 02:04:27;;;;;;;19.83;19.13;;;20.60;99.90;;;;;;5053542;28;20196;-63
2023/09/08 02:06:54;;;;;;;15.95;15.43;;;20.60;99.90;;;;;;5053864;28;20192;-63
2023/09/08 02:09:21;;;;;;;17.67;17.08;;;20.60;99.90;;;;;;5054248;28;20287;-62
2023/09/08 02:11:48;;;;;;;16.23;15.63;;;20.60;99.90;;;;;;5054840;28;20319;-63
2023/09/08 02:14:14;;;;;;;18.15;17.52;;;20.60;99.90;;;;;;5055012;28;20559;-63
2023/09/08 02:16:43;;;;;;;22.88;22.02;;;20.50;99.90;;;;;;5054384;28;20234;-63
2023/09/08 02:19:09;;;;;;;18.65;18.05;;;20.60;99.90;;;;;;5054072;28;20206;-64
2023/09/08 02:21:36;;;;;;;17.35;16.75;;;20.60;99.90;;;;;;5053325;28;20597;-62
2023/09/08 02:24:03;;;;;;;20.07;19.33;;;20.60;99.90;;;;;;5054326;28;20626;-64
2023/09/08 02:26:33;;;;;;;22.48;21.73;;;20.50;99.90;;;;;;5053381;28;20204;-63
2023/09/08 02:29:00;;;;;;;24.03;23.17;;;20.40;99.90;;;;;;5046300;28;20287;-64
2023/09/08 02:31:27;;;;;;;24.37;23.47;;;20.30;99.90;;;;;;5053187;28;20199;-62
2023/09/08 02:33:55;;;;;;;21.38;20.63;;;20.30;99.90;;;;;;5045111;28;20215;-62
2023/09/08 02:36:25;;;;;;;21.00;20.25;;;20.30;99.90;;;;;;5053744;28;20265;-69
2023/09/08 02:38:52;;;;;;;22.48;21.67;;;20.20;99.90;;;;;;5052876;28;20204;-62
2023/09/08 02:41:18;;;;;;;23.73;22.85;;;20.20;99.90;;;;;;5052933;28;20206;-62
2023/09/08 02:43:45;;;;;;;22.83;22.03;;;20.20;99.90;;;;;;5052941;28;20200;-62
2023/09/08 02:46:12;;;;;;;22.52;21.65;;;20.10;99.90;;;;;;5044720;28;20216;-63
2023/09/08 02:48:39;;;;;;;22.65;21.88;;;20.10;99.90;;;;;;5051231;28;20204;-63
2023/09/08 02:51:07;;;;;;;20.42;19.70;;;20.10;99.90;;;;;;5046349;28;20580;-64
2023/09/08 02:53:34;;;;;;;19.70;19.00;;;20.10;99.90;;;;;;5052564;28;20228;-62
2023/09/08 02:56:03;;;;;;;19.40;18.70;;;20.20;99.90;;;;;;5052978;28;20221;-63
2023/09/08 02:58:30;;;;;;;23.17;22.33;;;20.20;99.90;;;;;;5053206;28;20262;-63
2023/09/08 03:00:57;;;;;;;22.85;22.05;;;20.20;99.90;;;;;;5052629;28;20576;-63
2023/09/08 03:03:24;;;;;;;24.50;23.63;;;20.20;99.90;;;;;;5052076;28;20230;-62
2023/09/08 03:05:56;;;;;;;23.47;22.67;;;20.20;99.90;;;;;;5043969;28;20198;-62
2023/09/08 03:08:25;;;;;;;25.30;24.40;;;20.20;99.90;;;;;;5045481;28;20231;-62
2023/09/08 03:10:56;;;;;;;25.53;24.60;;;20.30;99.90;;;;;;5049131;28;20552;-62
2023/09/08 03:13:23;;;;;;;24.53;23.67;;;20.30;99.90;;;;;;5047779;28;20224;-62
2023/09/08 03:15:50;;;;;;;26.27;25.38;;;20.20;99.90;;;;;;5052153;28;20227;-63
2023/09/08 03:18:16;;;;;;;27.52;26.52;;;20.30;99.90;;;;;;5052171;28;20268;-62
2023/09/08 03:20:43;;;;;;;25.20;24.25;;;20.00;99.90;;;;;;5043840;28;20597;-62
2023/09/08 03:23:10;;;;;;;25.45;24.55;;;20.20;99.90;;;;;;5076813;22;20276;-63
2023/09/08 03:25:38;;;;;;;25.77;24.88;;;20.10;99.90;;;;;;5077993;28;20199;-64
2023/09/08 03:28:05;;;;;;;26.60;25.70;;;20.00;99.90;;;;;;5076301;28;20214;-63
2023/09/08 03:30:32;;;;;;;26.20;25.20;;;19.90;99.90;;;;;;5074881;28;20673;-63
2023/09/08 03:32:59;;;;;;;26.77;25.77;;;19.90;99.90;;;;;;5074513;28;20203;-62
2023/09/08 03:35:26;;;;;;;23.52;22.73;;;19.90;99.90;;;;;;5074438;28;20199;-64
2023/09/08 03:37:52;;;;;;;26.33;25.33;;;19.80;99.90;;;;;;5074271;28;20226;-63
2023/09/08 03:40:19;;;;;;;27.37;26.37;;;19.80;99.90;;;;;;5073988;28;20206;-63
2023/09/08 03:42:47;;;;;;;26.87;25.97;;;19.70;99.90;;;;;;5074650;28;20207;-62
2023/09/08 03:45:14;;;;;;;27.55;26.58;;;19.80;99.90;;;;;;5072775;28;20227;-63
2023/09/08 03:47:41;;;;;;;25.75;24.85;;;19.80;99.90;;;;;;5073984;28;20661;-63
2023/09/08 03:50:09;;;;;;;26.25;25.35;;;19.70;99.90;;;;;;5074387;28;20580;-63
2023/09/08 03:52:36;;;;;;;25.65;24.75;;;19.70;99.90;;;;;;5073583;28;20290;-63
2023/09/08 03:55:03;;;;;;;27.00;26.10;;;19.70;99.90;;;;;;5073791;28;20311;-63
2023/09/08 03:57:30;;;;;;;27.73;26.73;;;19.60;99.90;;;;;;5074132;28;20818;-63
2023/09/08 03:59:58;;;;;;;28.23;27.23;;;19.60;99.90;;;;;;5073745;28;20205;-63
2023/09/08 04:02:24;;;;;;;28.83;27.83;;;19.60;99.90;;;;;;5071745;28;20657;-62
2023/09/08 04:04:52;;;;;;;25.65;24.75;;;19.50;99.90;;;;;;5079242;28;20238;-63
2023/09/08 04:07:19;;;;;;;24.05;23.15;;;19.50;99.90;;;;;;5076279;28;20196;-63
2023/09/08 04:09:46;;;;;;;30.63;29.53;;;19.50;99.90;;;;;;5073181;28;20901;-64
2023/09/08 04:12:12;;;;;;;30.15;29.08;;;19.50;99.90;;;;;;5072125;28;21004;-64
2023/09/08 04:14:39;;;;;;;33.93;32.70;;;19.50;99.90;;;;;;5073702;28;20246;-64
2023/09/08 04:17:08;;;;;;;29.23;28.23;;;19.50;99.90;;;;;;5072762;28;20237;-64
2023/09/08 04:19:34;;;;;;;31.97;30.87;;;19.60;99.90;;;;;;5073066;28;20249;-64
2023/09/08 04:22:01;;;;;;;30.23;29.13;;;19.60;99.90;;;;;;5072691;28;20213;-63
2023/09/08 04:24:28;;;;;;;28.00;27.00;;;19.50;99.90;;;;;;5072265;28;20231;-63
2023/09/08 04:26:55;;;;;;;30.13;29.10;;;19.50;99.90;;;;;;5072577;28;20203;-64
2023/09/08 04:29:21;;;;;;;28.63;27.63;;;19.50;99.90;;;;;;5073092;28;20202;-64
2023/09/08 04:31:48;;;;;;;30.35;29.27;;;19.50;99.90;;;;;;5072757;28;20207;-63
2023/09/08 04:34:16;;;;;;;27.17;26.17;;;19.50;99.90;;;;;;5075373;28;20225;-64
2023/09/08 04:36:43;;;;;;;23.90;23.10;;;19.50;99.90;;;;;;5072217;28;20225;-62
2023/09/08 04:39:11;;;;;;;26.00;25.10;;;19.40;99.90;;;;;;5073106;28;20572;-63
2023/09/08 04:41:37;;;;;;;28.93;27.90;;;19.40;99.90;;;;;;5074896;28;20297;-63
2023/09/08 04:44:05;;;;;;;27.05;26.13;;;19.30;99.90;;;;;;5074093;28;20245;-63
2023/09/08 04:46:32;;;;;;;25.55;24.63;;;19.30;99.90;;;;;;5079241;28;20278;-63
2023/09/08 04:48:59;;;;;;;29.20;28.20;;;19.30;99.90;;;;;;5073582;28;20490;-63
2023/09/08 04:51:27;;;;;;;26.17;25.27;;;19.30;99.90;;;;;;5072508;28;20208;-62
2023/09/08 04:53:53;;;;;;;26.60;25.63;;;19.30;99.90;;;;;;5072053;28;20230;-63
2023/09/08 04:56:20;;;;;;;27.80;26.80;;;19.20;99.90;;;;;;5075711;28;20734;-62
2023/09/08 04:58:47;;;;;;;25.77;24.88;;;19.20;99.90;;;;;;5081270;28;20217;-64
2023/09/08 05:01:14;;;;;;;25.90;24.93;;;19.10;99.90;;;;;;5078504;28;20222;-63
2023/09/08 05:03:40;;;;;;;25.00;24.10;;;19.00;99.90;;;;;;5076196;28;20219;-64
2023/09/08 05:06:07;;;;;;;25.80;24.90;;;19.00;99.90;;;;;;5075764;28;20201;-64
2023/09/08 05:08:35;;;;;;;27.20;26.23;;;19.00;99.90;;;;;;5075170;28;20203;-63
2023/09/08 05:11:02;;;;;;;26.38;25.45;;;19.00;99.90;;;;;;5075524;28;20203;-63
2023/09/08 05:13:29;;;;;;;24.33;23.47;;;19.10;99.90;;;;;;5075255;28;20608;-64
2023/09/08 05:15:59;;;;;;;20.85;20.15;;;19.00;99.90;;;;;;5075654;28;20217;-63
2023/09/08 05:18:27;;;;;;;22.80;22.00;;;19.10;99.90;;;;;;5075826;28;20313;-63
2023/09/08 05:20:54;;;;;;;22.98;22.17;;;19.10;99.90;;;;;;5075689;28;20294;-64
2023/09/08 05:23:20;;;;;;;24.20;23.38;;;19.10;99.90;;;;;;5074925;28;20227;-62
2023/09/08 05:25:48;;;;;;;19.05;18.40;;;19.20;99.90;;;;;;5075065;28;20226;-58
2023/09/08 05:28:15;;;;;;;14.43;13.83;;;19.30;99.90;;;;;;5074645;28;20203;-59
2023/09/08 05:30:42;;;;;;;19.40;18.70;;;19.80;99.90;;;;;;5074229;28;20199;-59
2023/09/08 05:33:09;;;;;;;20.87;20.13;;;20.20;99.90;;;;;;5073636;28;20201;-58
2023/09/08 05:35:36;;;;;;;17.30;16.70;;;20.50;99.90;;;;;;5074425;28;20212;-59
2023/09/08 05:38:03;;;;;;;18.87;18.17;;;20.70;99.90;;;;;;5066379;28;20305;-59
2023/09/08 05:40:30;;;;;;;17.73;17.13;;;20.80;99.90;;;;;;5074214;28;20208;-58
2023/09/08 05:42:58;;;;;;;20.15;19.45;;;20.90;99.90;;;;;;5073741;28;20218;-58
2023/09/08 05:45:25;;;;;;;18.63;18.00;;;21.00;99.90;;;;;;5072438;28;20217;-58
2023/09/08 05:47:52;;;;;;;20.88;20.17;;;21.10;99.90;;;;;;5074046;28;20261;-58
2023/09/08 05:50:19;;;;;;;17.03;16.40;;;21.20;99.90;;;;;;5073112;28;20202;-58
2023/09/08 05:52:46;;;;;;;20.35;19.65;;;21.20;99.90;;;;;;5072370;28;20207;-58
2023/09/08 05:55:13;;;;;;;20.03;19.33;;;21.20;99.90;;;;;;5073487;28;20719;-59
2023/09/08 05:57:40;;;;;;;18.23;17.63;;;21.30;99.90;;;;;;5073095;28;20227;-58
2023/09/08 06:00:09;;;;;;;19.45;18.75;;;21.40;99.90;;;;;;5073282;28;20768;-58
2023/09/08 06:02:36;;;;;;;19.25;18.60;;;21.50;99.90;;;;;;5073044;28;20209;-58
2023/09/08 06:05:04;;;;;;;20.23;19.52;;;21.60;99.90;;;;;;5072589;28;20221;-58
2023/09/08 06:07:31;;;;;;;24.63;23.73;;;21.60;99.90;;;;;;5072159;28;20199;-58
2023/09/08 06:09:57;;;;;;;18.55;17.88;;;21.50;99.90;;;;;;5073293;28;20653;-57
2023/09/08 06:12:24;;;;;;;24.77;23.88;;;21.50;99.90;;;;;;5073258;28;20781;-59
2023/09/08 06:14:51;;;;;;;20.67;19.85;;;21.60;99.90;;;;;;5073206;28;20598;-62
2023/09/08 06:17:19;;;;;;;20.70;20.00;;;21.70;99.90;;;;;;5073074;28;20215;-63
2023/09/08 06:19:46;;;;;;;20.45;19.75;;;21.40;99.90;;;;;;5072416;28;20218;-63
2023/09/08 06:22:13;;;;;;;20.88;20.17;;;21.20;99.90;;;;;;5072193;28;20209;-63
2023/09/08 06:24:40;;;;;;;20.80;20.10;;;21.10;99.90;;;;;;5071158;28;20223;-63
2023/09/08 06:27:07;;;;;;;21.17;20.38;;;21.10;99.90;;;;;;5072145;28;20200;-62
2023/09/08 06:29:34;;;;;;;20.95;20.25;;;21.10;99.90;;;;;;5073703;28;20211;-66
2023/09/08 06:32:00;;;;;;;23.42;22.63;;;21.10;99.90;;;;;;5079367;28;20263;-63
2023/09/08 06:34:28;;;;;;;25.33;24.42;;;21.10;99.90;;;;;;5073521;28;20585;-63
2023/09/08 06:36:55;;;;;;;25.05;24.13;;;21.20;99.90;;;;;;5073284;28;20280;-64
2023/09/08 06:39:23;;;;;;;22.17;21.27;;;21.20;99.90;;;;;;5074533;28;20279;-64
2023/09/08 06:41:49;;;;;;;24.60;23.73;;;21.20;99.90;;;;;;5074953;28;20235;-63
2023/09/08 06:44:16;;;;;;;23.60;22.80;;;21.20;99.90;;;;;;5073039;28;20227;-63
2023/09/08 06:46:43;;;;;;;24.73;23.85;;;21.20;99.90;;;;;;5073955;28;20199;-63
2023/09/08 06:49:10;;;;;;;24.00;23.10;;;21.30;99.90;;;;;;5073219;28;20658;-64
2023/09/08 06:51:38;;;;;;;24.73;23.83;;;21.30;99.90;;;;;;5073357;28;20217;-64
2023/09/08 06:54:05;;;;;;;21.92;21.13;;;21.30;99.90;;;;;;5063965;28;20598;-64
2023/09/08 06:56:32;;;;;;;24.03;23.13;;;21.50;99.90;;;;;;5072461;28;20214;-63
2023/09/08 06:59:00;;;;;;;22.77;21.98;;;21.50;99.90;;;;;;5071355;28;20238;-64
2023/09/08 07:01:27;;;;;;;24.02;23.17;;;21.60;99.90;;;;;;5072345;28;20207;-64
2023/09/08 07:03:54;;;;;;;22.98;22.17;;;21.70;99.90;;;;;;5071928;28;20227;-63
2023/09/08 07:06:22;;;;;;;21.33;20.60;;;21.80;99.90;;;;;;5071996;28;20199;-63
2023/09/08 07:08:50;;;;;;;18.67;18.02;;;21.90;99.90;;;;;;5072077;28;20206;-62
2023/09/08 07:11:17;;;;;;;21.53;20.77;;;22.00;99.90;;;;;;5077062;28;20191;-63
2023/09/08 07:13:44;;;;;;;22.00;21.23;;;22.10;99.90;;;;;;5071562;28;20730;-62
2023/09/08 07:16:11;;;;;;;18.98;18.33;;;22.20;99.90;;;;;;5071191;28;20203;-63
2023/09/08 07:18:38;;;;;;;18.52;17.88;;;22.30;99.90;;;;;;5072871;28;20223;-63
2023/09/08 07:21:05;;;;;;;18.00;17.40;;;22.40;99.90;;;;;;5076149;28;20203;-64
2023/09/08 07:23:32;;;;;;;19.55;18.85;;;22.60;99.90;;;;;;5074081;28;20237;-62
2023/09/08 07:26:00;;;;;;;19.75;18.98;;;22.70;99.90;;;;;;5072285;28;20211;-63
2023/09/08 07:28:27;;;;;;;18.13;17.52;;;22.80;99.90;;;;;;5073768;28;20202;-64
2023/09/08 07:30:53;;;;;;;20.67;19.98;;;22.90;99.90;;;;;;5073142;28;20210;-64
2023/09/08 07:33:22;;;;;;;21.65;20.90;;;23.10;99.90;;;;;;5072842;28;20215;-63
2023/09/08 07:35:49;;;;;;;24.13;23.23;;;23.20;99.90;;;;;;5072438;28;20211;-63
2023/09/08 07:38:16;;;;;;;21.40;20.70;;;23.30;99.90;;;;;;5072226;28;20223;-64
2023/09/08 07:40:42;;;;;;;24.35;23.45;;;23.40;99.90;;;;;;5076365;28;20314;-63
2023/09/08 07:43:11;;;;;;;23.83;22.85;;;23.50;99.90;;;;;;5073971;28;20217;-64
2023/09/08 07:45:40;;;;;;;23.92;23.05;;;23.50;99.90;;;;;;5071527;28;20576;-63
2023/09/08 07:48:07;;;;;;;25.58;24.67;;;23.60;99.90;;;;;;5071112;28;20210;-64
2023/09/08 07:50:34;;;;;;;31.52;30.40;;;23.70;99.90;;;;;;5071468;28;20231;-64
2023/09/08 07:53:01;;;;;;;36.13;34.85;;;23.80;99.90;;;;;;5071049;28;20203;-63
2023/09/08 07:55:28;;;;;;;27.25;26.30;;;23.80;99.90;;;;;;5071689;28;20213;-64
2023/09/08 07:57:57;;;;;;;30.23;29.15;;;23.80;99.90;;;;;;5071300;28;20250;-64
2023/09/08 08:00:26;;;;;;;31.25;30.17;;;23.90;99.90;;;;;;5074827;28;20211;-64
2023/09/08 08:02:55;;;;;;;29.13;28.10;;;23.90;99.90;;;;;;5091372;28;20211;-64
2023/09/08 08:05:22;;;;;;;28.63;27.63;;;23.90;99.90;;;;;;5072354;28;20195;-63
2023/09/08 08:07:49;;;;;;;27.35;26.35;;;24.00;99.90;;;;;;5071136;28;20206;-63
2023/09/08 08:10:16;;;;;;;26.70;25.75;;;24.20;99.90;;;;;;5071153;28;20661;-64
2023/09/08 08:12:44;;;;;;;23.42;22.63;;;24.30;99.90;;;;;;5070663;28;20199;-64
2023/09/08 08:15:11;;;;;;;28.88;27.88;;;24.40;99.90;;;;;;5062835;28;20226;-65
2023/09/08 08:17:40;;;;;;;23.10;22.23;;;24.40;99.90;;;;;;5070590;28;20265;-64
2023/09/08 08:20:09;;;;;;;29.98;28.88;;;24.60;99.90;;;;;;5070634;28;20203;-63
2023/09/08 08:22:36;;;;;;;29.08;28.00;;;24.70;99.90;;;;;;5070961;28;20274;-63
2023/09/08 08:25:04;;;;;;;27.58;26.63;;;24.80;99.90;;;;;;5070574;28;20235;-64
2023/09/08 08:27:31;;;;;;;25.75;24.85;;;24.90;99.90;;;;;;5070810;28;20199;-63
2023/09/08 08:30:00;;;;;;;24.67;23.80;;;25.00;99.90;;;;;;5069977;28;20230;-64
2023/09/08 08:32:27;;;;;;;26.52;25.63;;;25.20;99.90;;;;;;5074226;28;20252;-63
2023/09/08 08:34:55;;;;;;;29.58;28.52;;;25.20;99.90;;;;;;5074709;28;20227;-63
2023/09/08 08:37:23;;;;;;;30.10;29.02;;;25.20;99.90;;;;;;5074997;28;20206;-63
2023/09/08 08:39:50;;;;;;;26.02;25.13;;;25.30;99.90;;;;;;5084008;28;20330;-64
2023/09/08 08:42:17;;;;;;;24.80;23.90;;;25.50;99.90;;;;;;5077469;28;20209;-64
2023/09/08 08:44:45;;;;;;;22.50;21.70;;;25.60;99.90;;;;;;5081591;28;20219;-64
2023/09/08 08:47:15;;;;;;;26.42;25.45;;;25.70;99.90;;;;;;5076024;28;20203;-64
2023/09/08 08:49:46;;;;;;;28.70;27.60;;;25.70;99.90;;;;;;5076543;28;20206;-63
2023/09/08 08:52:17;;;;;;;24.88;23.98;;;25.80;99.90;;;;;;5067756;28;20200;-62
2023/09/08 08:54:45;;;;;;;24.02;23.13;;;25.90;99.90;;;;;;5075414;28;20306;-63
2023/09/08 08:57:12;;;;;;;23.85;23.00;;;26.10;99.90;;;;;;5066426;28;20195;-64
2023/09/08 08:59:41;;;;;;;18.98;18.27;;;26.20;99.90;;;;;;5074920;28;20223;-64
2023/09/08 09:02:09;;;;;;;21.95;21.15;;;26.30;99.90;;;;;;5073141;28;20207;-64
2023/09/08 09:04:38;;;;;;;20.63;19.92;;;26.40;99.90;;;;;;5073077;28;20709;-63
2023/09/08 09:07:07;;;;;;;23.88;22.88;;;26.50;99.90;;;;;;5074431;28;20226;-64
2023/09/08 09:09:35;;;;;;;24.30;23.48;;;26.30;99.90;;;;;;5073908;28;20199;-64
2023/09/08 09:12:02;;;;;;;26.52;25.52;;;26.40;99.90;;;;;;5073015;28;20211;-64
2023/09/08 09:14:33;;;;;;;19.98;19.27;;;26.50;99.90;;;;;;5074457;28;20276;-63
2023/09/08 09:17:00;;;;;;;19.63;18.83;;;26.60;99.90;;;;;;5074669;28;20207;-63
2023/09/08 09:19:28;;;;;;;19.95;19.25;;;26.70;99.90;;;;;;5074284;28;20223;-64
2023/09/08 09:21:57;;;;;;;21.08;20.27;;;26.80;99.90;;;;;;5074108;28;20666;-65
2023/09/08 09:24:32;;;;;;;19.52;18.83;;;26.90;99.90;;;;;;5102535;22;20736;-61
2023/09/08 09:27:01;;;;;;;19.40;18.70;;;27.00;99.90;;;;;;5083347;28;20202;-62
2023/09/08 09:29:29;;;;;;;20.77;20.00;;;27.10;99.90;;;;;;5073860;28;20629;-62
2023/09/08 09:31:57;;;;;;;19.63;18.92;;;27.20;99.90;;;;;;5073206;28;20214;-62
2023/09/08 09:34:25;;;;;;;20.60;19.90;;;27.30;99.90;;;;;;5073104;28;20215;-62
2023/09/08 09:36:52;;;;;;;20.45;19.75;;;27.30;99.90;;;;;;5073325;28;20293;-62
2023/09/08 09:39:19;;;;;;;27.30;26.23;;;27.30;99.90;;;;;;5073355;28;20235;-62
2023/09/08 09:41:47;;;;;;;20.23;19.35;;;27.30;99.90;;;;;;5073117;28;20238;-62
2023/09/08 09:44:16;;;;;;;24.55;23.65;;;27.40;99.90;;;;;;5072558;28;20215;-62
2023/09/08 09:46:46;;;;;;;21.02;20.23;;;27.50;99.90;;;;;;5073273;28;20199;-62
2023/09/08 09:49:14;;;;;;;20.35;19.65;;;27.60;99.90;;;;;;5072955;28;20203;-62
2023/09/08 09:51:43;;;;;;;22.23;21.40;;;27.70;99.90;;;;;;5072881;28;20200;-62
2023/09/08 09:54:10;;;;;;;20.27;19.58;;;27.90;99.90;;;;;;5073461;28;20561;-62
2023/09/08 09:56:39;;;;;;;26.58;25.50;;;27.90;99.90;;;;;;5073467;28;20686;-62
2023/09/08 09:59:08;;;;;;;20.02;19.33;;;27.90;99.90;;;;;;5074003;28;20642;-63
2023/09/08 10:01:36;;;;;;;20.65;19.92;;;27.80;99.90;;;;;;5079424;28;20300;-63
2023/09/08 10:04:04;;;;;;;21.30;20.52;;;27.80;99.90;;;;;;5074389;28;20225;-64
2023/09/08 10:06:33;;;;;;;19.60;18.90;;;28.10;99.90;;;;;;5073162;28;20834;-61
2023/09/08 10:09:01;;;;;;;19.42;18.73;;;28.10;99.90;;;;;;5074371;28;20200;-62
2023/09/08 10:11:30;;;;;;;20.02;19.33;;;28.10;99.90;;;;;;5073471;28;20199;-61
2023/09/08 10:14:00;;;;;;;23.27;22.30;;;28.20;99.90;;;;;;5074025;28;20219;-61
2023/09/08 10:16:29;;;;;;;21.67;20.88;;;28.20;99.90;;;;;;5073951;28;20688;-63
2023/09/08 10:18:59;;;;;;;19.40;18.70;;;28.30;99.90;;;;;;5075255;28;20231;-62
2023/09/08 10:21:28;;;;;;;23.70;22.80;;;28.50;99.90;;;;;;5073046;28;20200;-63
2023/09/08 10:24:00;;;;;;;19.55;18.85;;;28.70;99.90;;;;;;5072467;28;20648;-62
2023/09/08 10:26:29;;;;;;;19.75;19.05;;;28.80;99.90;;;;;;5072863;28;20199;-63
2023/09/08 10:28:56;;;;;;;19.30;18.60;;;28.80;99.90;;;;;;5073122;28;20195;-63
2023/09/08 10:31:26;;;;;;;20.52;19.83;;;28.90;99.90;;;;;;5071706;28;20203;-63
2023/09/08 10:33:53;;;;;;;22.02;21.23;;;29.00;99.90;;;;;;5071272;28;20211;-62
2023/09/08 10:36:22;;;;;;;24.55;23.65;;;29.10;99.90;;;;;;5072840;28;20202;-62
2023/09/08 10:38:51;;;;;;;28.33;27.27;;;29.10;99.90;;;;;;5072326;28;20227;-62
2023/09/08 10:41:31;;;;;;;23.45;22.65;;;29.20;99.90;;;;;;5071474;28;20203;-62
2023/09/08 10:44:02;;;;;;;37.28;35.47;;;29.10;99.90;;;;;;5071564;28;20223;-63
2023/09/08 10:46:31;;;;;;;25.30;24.40;;;29.00;99.90;;;;;;5080751;28;20199;-63
2023/09/08 10:49:03;;;;;;;24.73;23.85;;;28.80;99.90;;;;;;5072575;28;20206;-63
2023/09/08 10:51:32;;;;;;;25.50;24.52;;;28.80;99.90;;;;;;5071702;28;20214;-64
2023/09/08 10:53:59;;;;;;;25.65;24.75;;;28.90;99.90;;;;;;5070998;28;20223;-64
2023/09/08 10:56:30;;;;;;;25.95;24.98;;;29.00;99.90;;;;;;5071773;28;20205;-64
2023/09/08 10:59:01;;;;;;;45.08;42.92;;;29.30;99.90;;;;;;5071436;28;20227;-62
2023/09/08 11:01:28;;;;;;;24.08;23.20;;;29.40;99.90;;;;;;5071904;28;20290;-61
2023/09/08 11:03:55;;;;;;;30.08;28.98;;;29.40;99.90;;;;;;5071129;28;20645;-63
2023/09/08 11:06:23;;;;;;;27.33;26.33;;;29.40;99.90;;;;;;5071639;28;20210;-63
2023/09/08 11:08:55;;;;;;;22.73;21.88;;;29.40;99.90;;;;;;5071915;28;20195;-63
2023/09/08 11:11:22;;;;;;;24.58;23.67;;;29.40;99.90;;;;;;5078925;28;20214;-62
2023/09/08 11:13:49;;;;;;;23.45;22.55;;;29.40;99.90;;;;;;5072499;28;20203;-63
2023/09/08 11:16:17;;;;;;;21.08;20.33;;;29.40;99.90;;;;;;5083152;28;20229;-63
2023/09/08 11:18:44;;;;;;;22.45;21.58;;;29.60;99.90;;;;;;5083898;28;20245;-63
2023/09/08 11:21:11;;;;;;;22.13;21.33;;;29.80;99.90;;;;;;5081388;28;20230;-63
2023/09/08 11:23:39;;;;;;;24.35;23.45;;;29.90;99.90;;;;;;5080583;28;20199;-63
2023/09/08 11:26:08;;;;;;;24.02;23.13;;;30.00;99.90;;;;;;5085730;28;20210;-63
2023/09/08 11:28:35;;;;;;;33.88;32.63;;;30.10;99.90;;;;;;5082131;28;20226;-63
2023/09/08 11:31:04;;;;;;;22.70;21.85;;;30.00;99.90;;;;;;5080149;28;20231;-62
2023/09/08 11:33:38;;;;;;;30.35;29.25;;;30.20;99.90;;;;;;5074580;28;20206;-62
2023/09/08 11:36:14;;;;;;;35.38;34.08;;;30.20;99.90;;;;;;5081076;28;20207;-62
2023/09/08 11:38:43;;;;;;;36.72;35.42;;;30.20;99.90;;;;;;5082820;28;20223;-63
2023/09/08 11:41:11;;;;;;;44.83;43.20;;;30.20;99.90;;;;;;5090892;28;20207;-62
2023/09/08 11:43:38;;;;;;;42.35;40.83;;;30.30;99.90;;;;;;5090936;28;20205;-62
2023/09/08 11:46:06;;;;;;;43.70;42.10;;;30.40;99.90;;;;;;5088835;28;20269;-62
2023/09/08 11:48:33;;;;;;;37.80;36.40;;;30.40;99.90;;;;;;5078477;28;20231;-62
2023/09/08 11:51:00;;;;;;;43.20;41.65;;;30.60;99.90;;;;;;5086616;28;20206;-63
2023/09/08 11:53:28;;;;;;;46.17;44.40;;;30.70;99.90;;;;;;5073483;28;20210;-63
2023/09/08 11:55:55;;;;;;;38.53;37.03;;;30.60;99.90;;;;;;5089132;28;20222;-63
2023/09/08 11:58:23;;;;;;;43.60;42.00;;;30.40;99.90;;;;;;5080409;28;20198;-63
2023/09/08 12:00:51;;;;;;;73.60;70.72;;;30.40;99.90;;;;;;5080260;28;20211;-63
2023/09/08 12:03:18;;;;;;;53.72;51.80;;;30.40;99.90;;;;;;5079506;28;20655;-63
2023/09/08 12:05:51;;;;;;;67.05;64.63;;;30.50;99.90;;;;;;5080953;28;20231;-63
2023/09/08 12:08:18;;;;;;;49.08;47.30;;;30.60;99.90;;;;;;5085632;28;20203;-63
2023/09/08 12:10:45;;;;;;;93.78;88.93;;;30.70;99.90;;;;;;5075429;28;20198;-63
2023/09/08 12:13:13;;;;;;;54.75;52.80;;;30.70;99.90;;;;;;5079169;28;20256;-63
2023/09/08 12:15:43;;;;;;;75.97;73.28;;;30.70;99.90;;;;;;5069491;28;20223;-62
2023/09/08 12:18:12;;;;;;;71.32;68.72;;;30.70;99.90;;;;;;5089754;28;20268;-63
2023/09/08 12:20:39;;;;;;;68.90;66.30;;;30.90;99.90;;;;;;5090795;28;20258;-63
2023/09/08 12:23:15;;;;;;;75.72;73.03;;;31.00;99.90;;;;;;5090331;28;20297;-64
2023/09/08 12:25:46;;;;;;;76.18;73.40;;;30.80;99.90;;;;;;5090572;28;20228;-62
2023/09/08 12:28:12;;;;;;;65.47;63.08;;;31.00;99.90;;;;;;5091143;28;20219;-63
2023/09/08 12:30:40;;;;;;;75.07;72.28;;;30.90;99.90;;;;;;5090721;28;20198;-63